createdAt,value
2019-04-29T00:01:12.338Z,10.08
2019-04-29T00:03:42.032Z,10.08
2019-04-29T00:06:11.599Z,10.10
2019-04-29T00:08:41.367Z,10.10
2019-04-29T00:11:11.013Z,10.10
2019-04-29T00:13:40.700Z,10.09
2019-04-29T00:16:27.817Z,10.08
2019-04-29T00:19:16.477Z,10.04
2019-04-29T00:21:46.186Z,9.98
2019-04-29T00:24:15.858Z,9.93
2019-04-29T00:26:45.853Z,9.93
2019-04-29T00:29:15.486Z,9.92
2019-04-29T00:31:45.361Z,9.89
2019-04-29T00:34:15.211Z,9.82
2019-04-29T00:36:55.047Z,9.79
2019-04-29T00:39:47.142Z,9.74
2019-04-29T00:42:24.425Z,9.78
2019-04-29T00:44:54.130Z,9.73
2019-04-29T00:47:23.731Z,9.72
2019-04-29T00:49:53.412Z,9.64
2019-04-29T00:52:22.949Z,9.66
2019-04-29T00:54:58.493Z,9.67
2019-04-29T00:57:28.230Z,9.70
2019-04-29T00:59:57.894Z,9.72
2019-04-29T01:02:27.938Z,9.69
2019-04-29T01:04:57.719Z,9.69
2019-04-29T01:07:27.280Z,9.67
2019-04-29T01:09:56.857Z,9.65
2019-04-29T01:12:26.493Z,9.65
2019-04-29T01:14:56.153Z,9.66
2019-04-29T01:17:26.387Z,9.63
2019-04-29T01:19:56.098Z,9.53
2019-04-29T01:22:25.741Z,9.61
2019-04-29T01:24:55.403Z,9.64
2019-04-29T01:27:29.823Z,9.65
2019-04-29T01:29:59.540Z,9.68
2019-04-29T01:32:29.189Z,9.69
2019-04-29T01:34:58.859Z,9.61
2019-04-29T01:37:42.620Z,9.51
2019-04-29T01:40:31.165Z,9.38
2019-04-29T01:43:00.918Z,9.45
2019-04-29T01:45:30.756Z,9.44
2019-04-29T01:48:00.328Z,9.46
2019-04-29T01:50:30.085Z,9.30
2019-04-29T01:52:59.641Z,9.31
2019-04-29T01:55:29.385Z,9.37
2019-04-29T01:57:59.071Z,9.40
2019-04-29T02:00:28.749Z,9.42
2019-04-29T02:02:58.382Z,9.40
2019-04-29T02:05:28.051Z,9.40
2019-04-29T02:07:57.800Z,9.36
2019-04-29T02:10:31.762Z,9.31
2019-04-29T02:13:01.432Z,9.29
2019-04-29T02:15:31.058Z,9.31
2019-04-29T02:18:00.437Z,9.32
2019-04-29T02:20:30.052Z,9.31
2019-04-29T02:23:33.616Z,9.29
2019-04-29T02:26:03.375Z,9.27
2019-04-29T02:28:32.962Z,9.23
2019-04-29T02:31:21.489Z,9.23
2019-04-29T02:33:51.118Z,9.25
2019-04-29T02:36:20.807Z,9.24
2019-04-29T02:39:12.536Z,9.24
2019-04-29T02:42:01.111Z,9.24
2019-04-29T02:44:30.834Z,9.24
2019-04-29T02:47:00.469Z,9.23
2019-04-29T02:49:30.049Z,9.25
2019-04-29T02:51:59.695Z,9.24
2019-04-29T02:54:30.166Z,9.24
2019-04-29T02:57:18.699Z,9.24
2019-04-29T02:59:50.875Z,9.22
2019-04-29T03:02:42.598Z,9.16
2019-04-29T03:05:17.627Z,9.08
2019-04-29T03:07:47.325Z,8.34
2019-04-29T03:10:16.877Z,8.34
2019-04-29T03:12:46.573Z,8.44
2019-04-29T03:15:31.797Z,8.44
2019-04-29T03:18:01.607Z,8.47
2019-04-29T03:20:36.375Z,8.48
2019-04-29T03:23:14.287Z,8.08
2019-04-29T03:25:43.894Z,7.04
2019-04-29T03:28:13.531Z,7.04
2019-04-29T03:30:43.336Z,7.22
2019-04-29T03:33:13.081Z,7.48
2019-04-29T03:35:42.661Z,7.72
2019-04-29T03:38:12.288Z,7.86
2019-04-29T03:40:42.090Z,7.90
2019-04-29T03:43:12.099Z,8.00
2019-04-29T03:45:42.229Z,8.01
2019-04-29T03:48:12.171Z,8.10
2019-04-29T03:50:41.724Z,8.15
2019-04-29T03:53:11.380Z,8.18
2019-04-29T03:55:40.945Z,8.25
2019-04-29T03:58:10.579Z,8.30
2019-04-29T04:00:44.008Z,8.36
2019-04-29T04:03:23.049Z,8.36
2019-04-29T04:06:04.843Z,8.39
2019-04-29T04:08:37.130Z,8.34
2019-04-29T04:11:07.381Z,8.27
2019-04-29T04:13:37.021Z,8.29
2019-04-29T04:16:08.231Z,8.31
2019-04-29T04:18:37.150Z,8.32
2019-04-29T04:21:06.732Z,8.31
2019-04-29T04:23:36.345Z,8.40
2019-04-29T04:26:05.951Z,8.45
2019-04-29T04:28:35.486Z,8.52
2019-04-29T04:31:07.084Z,8.62
2019-04-29T04:33:36.521Z,8.75
2019-04-29T04:36:06.081Z,8.77
2019-04-29T04:38:35.788Z,8.43
2019-04-29T04:41:08.579Z,7.94
2019-04-29T04:43:38.251Z,8.13
2019-04-29T04:46:07.907Z,8.51
2019-04-29T04:48:37.641Z,8.77
2019-04-29T04:51:07.268Z,8.58
2019-04-29T04:53:36.860Z,8.82
2019-04-29T04:56:06.524Z,9.02
2019-04-29T04:58:36.147Z,8.51
2019-04-29T05:01:05.821Z,8.20
2019-04-29T05:03:35.375Z,8.68
2019-04-29T05:06:05.028Z,8.75
2019-04-29T05:08:34.609Z,8.48
2019-04-29T05:11:04.112Z,8.73
2019-04-29T05:13:33.720Z,9.29
2019-04-29T05:16:03.368Z,9.40
2019-04-29T05:18:33.023Z,9.47
2019-04-29T05:21:02.517Z,10.02
2019-04-29T05:23:32.250Z,10.47
2019-04-29T05:26:01.885Z,10.80
2019-04-29T05:28:31.459Z,11.10
2019-04-29T05:31:01.083Z,11.13
2019-04-29T05:33:30.650Z,11.30
2019-04-29T05:36:19.310Z,11.47
2019-04-29T05:38:55.050Z,11.72
2019-04-29T05:41:30.213Z,11.82
2019-04-29T05:44:10.140Z,11.27
2019-04-29T05:46:47.423Z,11.27
2019-04-29T05:49:20.559Z,10.75
2019-04-29T05:52:03.245Z,10.94
2019-04-29T05:54:33.552Z,11.38
2019-04-29T05:57:03.229Z,11.97
2019-04-29T05:59:32.785Z,12.66
2019-04-29T06:02:02.455Z,13.10
2019-04-29T06:04:32.125Z,12.36
2019-04-29T06:07:01.771Z,13.21
2019-04-29T06:09:31.341Z,13.92
2019-04-29T06:12:00.989Z,13.91
2019-04-29T06:14:30.678Z,14.04
2019-04-29T06:17:02.889Z,14.29
2019-04-29T06:19:35.145Z,15.11
2019-04-29T06:22:03.927Z,15.57
2019-04-29T06:24:36.838Z,15.67
2019-04-29T06:27:05.072Z,16.44
2019-04-29T06:29:34.579Z,15.82
2019-04-29T06:32:04.319Z,16.71
2019-04-29T06:34:35.483Z,17.21
2019-04-29T06:37:05.488Z,17.17
2019-04-29T06:39:35.230Z,16.41
2019-04-29T06:42:04.999Z,16.38
2019-04-29T06:44:34.537Z,16.36
2019-04-29T06:47:04.345Z,16.62
2019-04-29T06:49:33.977Z,15.75
2019-04-29T06:52:03.731Z,16.50
2019-04-29T06:54:33.395Z,17.26
2019-04-29T06:57:03.134Z,18.36
2019-04-29T06:59:32.717Z,19.11
2019-04-29T07:02:02.479Z,19.36
2019-04-29T07:04:38.439Z,19.67
2019-04-29T07:07:03.532Z,19.67
2019-04-29T07:09:33.184Z,20.00
2019-04-29T07:12:02.933Z,20.32
2019-04-29T07:14:35.939Z,20.52
2019-04-29T07:17:05.574Z,20.87
2019-04-29T07:19:35.181Z,20.55
2019-04-29T07:22:04.847Z,20.75
2019-04-29T07:24:34.564Z,21.17
2019-04-29T07:27:04.483Z,21.68
2019-04-29T07:29:34.170Z,21.87
2019-04-29T07:32:04.677Z,22.08
2019-04-29T07:34:39.203Z,22.36
2019-04-29T07:37:06.357Z,22.14
2019-04-29T07:39:36.028Z,22.35
2019-04-29T07:42:05.673Z,22.89
2019-04-29T07:44:44.668Z,23.61
2019-04-29T07:47:14.416Z,23.70
2019-04-29T07:49:47.388Z,24.51
2019-04-29T07:52:16.185Z,24.40
2019-04-29T07:54:48.273Z,24.19
2019-04-29T07:57:18.087Z,23.79
2019-04-29T07:59:47.829Z,24.76
2019-04-29T08:02:17.379Z,24.17
2019-04-29T08:04:46.931Z,25.17
2019-04-29T08:07:16.793Z,25.10
2019-04-29T08:09:46.467Z,26.01
2019-04-29T08:12:16.186Z,25.26
2019-04-29T08:14:45.891Z,24.71
2019-04-29T08:17:15.522Z,24.78
2019-04-29T08:19:45.189Z,25.59
2019-04-29T08:22:18.103Z,26.13
2019-04-29T08:24:50.419Z,26.71
2019-04-29T08:27:17.314Z,27.11
2019-04-29T08:29:47.036Z,27.02
2019-04-29T08:32:16.738Z,27.47
2019-04-29T08:34:46.407Z,27.79
2019-04-29T08:37:16.073Z,28.00
2019-04-29T08:40:00.438Z,27.63
2019-04-29T08:42:22.043Z,28.13
2019-04-29T08:45:10.595Z,29.60
2019-04-29T08:47:42.154Z,30.16
2019-04-29T08:50:11.754Z,30.58
2019-04-29T08:52:41.106Z,30.21
2019-04-29T08:55:10.503Z,29.76
2019-04-29T08:57:39.857Z,30.23
2019-04-29T09:00:09.264Z,31.28
2019-04-29T09:02:41.281Z,31.88
2019-04-29T09:18:41.040Z,27.48
2019-04-29T09:21:10.475Z,28.29
2019-04-29T09:23:39.826Z,28.26
2019-04-29T09:26:28.338Z,27.18
2019-04-29T09:28:59.812Z,26.89
2019-04-29T09:31:28.865Z,26.77
2019-04-29T09:34:06.559Z,27.21
2019-04-29T09:36:29.511Z,27.69
2019-04-29T09:38:58.982Z,27.74
2019-04-29T09:41:38.678Z,27.35
2019-04-29T09:44:25.863Z,27.26
2019-04-29T09:46:55.303Z,27.39
2019-04-29T09:49:24.691Z,27.03
2019-04-29T09:51:54.112Z,26.29
2019-04-29T09:54:24.159Z,25.70
2019-04-29T09:56:53.773Z,25.53
2019-04-29T09:59:31.258Z,25.53
2019-04-29T10:02:26.526Z,25.48
2019-04-29T10:05:22.394Z,25.24
2019-04-29T10:07:51.952Z,25.42
2019-04-29T10:10:21.694Z,24.67
2019-04-29T10:12:53.957Z,24.14
2019-04-29T10:15:29.353Z,24.25
2019-04-29T10:18:12.090Z,24.24
2019-04-29T10:20:47.290Z,24.44
2019-04-29T10:23:16.702Z,25.03
2019-04-29T10:25:46.069Z,24.99
2019-04-29T10:28:15.551Z,24.46
2019-04-29T10:30:45.071Z,24.21
2019-04-29T10:33:17.668Z,24.06
2019-04-29T10:35:46.351Z,24.00
2019-04-29T10:38:15.739Z,24.22
2019-04-29T10:41:04.330Z,24.11
2019-04-29T10:43:55.750Z,24.25
2019-04-29T10:46:52.863Z,24.47
2019-04-29T10:49:27.162Z,24.88
2019-04-29T10:51:57.943Z,25.32
2019-04-29T10:54:28.053Z,25.30
2019-04-29T10:56:57.557Z,25.24
2019-04-29T10:59:35.573Z,25.16
2019-04-29T11:02:52.858Z,25.17
2019-04-29T11:05:44.531Z,24.82
2019-04-29T11:08:27.960Z,25.21
2019-04-29T11:11:02.347Z,25.34
2019-04-29T11:13:31.464Z,25.41
2019-04-29T11:16:00.907Z,25.44
2019-04-29T11:18:30.533Z,25.50
2019-04-29T11:21:00.003Z,25.52
2019-04-29T11:23:50.785Z,25.82
2019-04-29T11:26:39.700Z,25.65
2019-04-29T11:29:09.621Z,24.40
2019-04-29T11:31:39.413Z,23.89
2019-04-29T11:34:18.028Z,23.61
2019-04-29T11:36:47.548Z,24.17
2019-04-29T11:39:16.990Z,24.32
2019-04-29T11:41:46.363Z,23.85
2019-04-29T11:44:16.430Z,24.47
2019-04-29T11:46:49.104Z,23.99
2019-04-29T11:49:18.700Z,24.09
2019-04-29T11:52:08.490Z,24.28
2019-04-29T11:54:20.866Z,24.47
2019-04-29T11:56:50.258Z,24.51
2019-04-29T11:59:37.114Z,24.82
2019-04-29T12:02:30.757Z,24.67
2019-04-29T12:04:59.597Z,24.66
2019-04-29T12:07:32.784Z,24.57
2019-04-29T12:10:02.337Z,23.79
2019-04-29T12:12:31.625Z,24.50
2019-04-29T12:15:26.571Z,25.04
2019-04-29T12:18:18.252Z,24.91
2019-04-29T12:21:02.943Z,24.73
2019-04-29T12:23:32.400Z,25.55
2019-04-29T12:26:03.201Z,25.20
2019-04-29T12:28:33.276Z,25.79
2019-04-29T12:31:10.367Z,26.18
2019-04-29T12:33:44.561Z,26.12
2019-04-29T12:36:16.447Z,26.43
2019-04-29T12:39:03.296Z,26.99
2019-04-29T12:42:00.678Z,25.73
2019-04-29T12:44:44.078Z,24.53
2019-04-29T12:47:38.478Z,25.26
2019-04-29T12:50:07.956Z,25.14
2019-04-29T12:52:37.462Z,24.86
2019-04-29T12:55:19.629Z,25.11
2019-04-29T12:57:39.301Z,25.40
2019-04-29T13:00:10.520Z,24.53
2019-04-29T13:03:05.381Z,24.49
2019-04-29T13:05:58.242Z,24.85
2019-04-29T13:08:35.443Z,24.82
2019-04-29T13:11:06.328Z,24.66
2019-04-29T13:13:35.719Z,24.60
2019-04-29T13:16:25.298Z,25.05
2019-04-29T13:19:20.445Z,24.79
2019-04-29T13:21:50.281Z,24.74
2019-04-29T13:24:24.878Z,25.07
2019-04-29T13:26:51.366Z,24.77
2019-04-29T13:31:52.307Z,23.92
2019-04-29T13:33:22.628Z,24.18
2019-04-29T13:34:32.782Z,24.14
2019-04-29T13:37:07.428Z,24.16
2019-04-29T13:39:39.936Z,23.94
2019-04-29T13:42:09.054Z,24.05
2019-04-29T13:44:41.299Z,24.03
2019-04-29T13:47:29.097Z,24.13
2019-04-29T13:50:17.899Z,24.44
2019-04-29T13:52:34.906Z,23.85
2019-04-29T13:55:17.062Z,23.40
2019-04-29T13:57:35.482Z,23.20
2019-04-29T14:00:30.219Z,22.83
2019-04-29T14:03:11.767Z,22.51
2019-04-29T14:05:41.462Z,22.13
2019-04-29T14:08:10.018Z,21.80
2019-04-29T14:10:39.452Z,21.96
2019-04-29T14:13:13.321Z,21.78
2019-04-29T14:18:12.044Z,21.97
2019-04-29T14:18:53.558Z,21.84
2019-04-29T14:20:42.287Z,21.72
2019-04-29T14:23:11.707Z,21.51
2019-04-29T14:25:41.100Z,21.34
2019-04-29T14:28:10.572Z,20.80
2019-04-29T14:30:43.784Z,20.30
2019-04-29T14:33:11.272Z,20.34
2019-04-29T14:35:48.167Z,20.57
2019-04-29T14:38:16.950Z,20.95
2019-04-29T14:40:46.530Z,20.71
2019-04-29T14:43:31.404Z,20.80
2019-04-29T14:46:16.177Z,20.90
2019-04-29T14:48:55.068Z,20.99
2019-04-29T14:51:27.926Z,21.23
2019-04-29T14:53:57.078Z,21.10
2019-04-29T14:56:26.692Z,21.39
2019-04-29T14:59:06.570Z,21.55
2019-04-29T15:01:38.317Z,21.35
2019-04-29T15:04:17.950Z,21.34
2019-04-29T15:06:41.149Z,20.90
2019-04-29T15:09:17.481Z,20.69
2019-04-29T15:12:04.712Z,20.81
2019-04-29T15:14:41.063Z,20.98
2019-04-29T15:17:35.431Z,20.64
2019-04-29T15:20:11.296Z,20.18
2019-04-29T15:22:41.081Z,20.41
2019-04-29T15:25:10.637Z,20.32
2019-04-29T15:27:40.453Z,20.56
2019-04-29T15:30:10.332Z,20.40
2019-04-29T15:32:40.044Z,20.53
2019-04-29T15:35:09.695Z,20.45
2019-04-29T15:37:39.313Z,20.46
2019-04-29T15:40:09.715Z,19.91
2019-04-29T15:42:42.790Z,19.80
2019-04-29T15:45:10.268Z,20.00
2019-04-29T15:47:41.713Z,19.85
2019-04-29T15:50:18.775Z,19.87
2019-04-29T15:52:41.922Z,19.69
2019-04-29T15:55:11.336Z,19.71
2019-04-29T15:57:41.030Z,19.69
2019-04-29T16:00:21.619Z,19.69
2019-04-29T16:02:44.192Z,19.74
2019-04-29T16:06:18.928Z,19.64
2019-04-29T16:08:38.245Z,19.96
2019-04-29T16:11:38.538Z,20.46
2019-04-29T16:14:12.094Z,20.67
2019-04-29T16:16:41.721Z,20.65
2019-04-29T16:19:11.141Z,20.41
2019-04-29T16:21:41.798Z,20.49
2019-04-29T16:24:26.041Z,20.54
2019-04-29T16:26:42.378Z,20.50
2019-04-29T16:29:12.986Z,20.38
2019-04-29T16:31:42.887Z,19.80
2019-04-29T16:34:12.313Z,19.60
2019-04-29T16:36:43.636Z,19.27
2019-04-29T16:39:12.790Z,19.09
2019-04-29T16:42:01.578Z,18.73
2019-04-29T16:44:36.234Z,18.58
2019-04-29T16:47:07.396Z,18.36
2019-04-29T16:49:33.546Z,18.33
2019-04-29T16:52:02.943Z,18.50
2019-04-29T16:54:32.351Z,18.44
2019-04-29T16:57:01.735Z,18.17
2019-04-29T16:59:31.454Z,18.58
2019-04-29T17:02:00.827Z,18.10
2019-04-29T17:04:30.241Z,18.09
2019-04-29T17:07:12.371Z,17.97
2019-04-29T17:09:42.234Z,17.69
2019-04-29T17:12:11.643Z,17.92
2019-04-29T17:15:02.364Z,17.91
2019-04-29T17:17:16.891Z,17.81
2019-04-29T17:20:05.439Z,17.54
2019-04-29T17:22:35.699Z,17.51
2019-04-29T17:25:08.208Z,17.57
2019-04-29T17:27:59.320Z,17.55
2019-04-29T17:30:49.311Z,17.52
2019-04-29T17:33:29.818Z,17.52
2019-04-29T17:35:59.204Z,17.55
2019-04-29T17:38:28.799Z,17.24
2019-04-29T17:40:58.443Z,17.39
2019-04-29T17:43:47.015Z,17.37
2019-04-29T17:46:44.888Z,17.32
2019-04-29T17:49:33.439Z,17.23
2019-04-29T17:52:06.348Z,17.07
2019-04-29T17:54:39.823Z,17.00
2019-04-29T17:57:31.225Z,17.07
2019-04-29T18:00:10.614Z,17.05
2019-04-29T18:03:00.912Z,17.22
2019-04-29T18:06:05.324Z,17.31
2019-04-29T18:08:52.189Z,17.31
2019-04-29T18:11:21.913Z,17.16
2019-04-29T18:13:52.520Z,16.43
2019-04-29T18:16:28.412Z,16.66
2019-04-29T18:19:06.362Z,16.66
2019-04-29T18:22:03.868Z,16.82
2019-04-29T18:24:52.425Z,17.05
2019-04-29T18:27:23.123Z,16.95
2019-04-29T18:29:54.921Z,16.97
2019-04-29T18:32:34.987Z,17.15
2019-04-29T18:34:55.941Z,17.28
2019-04-29T18:37:25.960Z,17.35
2019-04-29T18:39:57.679Z,17.32
2019-04-29T18:42:27.214Z,17.34
2019-04-29T18:45:00.259Z,17.22
2019-04-29T18:47:34.871Z,17.24
2019-04-29T18:49:59.790Z,17.39
2019-04-29T18:52:30.470Z,17.43
2019-04-29T18:55:00.140Z,17.41
2019-04-29T18:57:30.920Z,17.00
2019-04-29T19:00:05.810Z,16.91
2019-04-29T19:02:32.347Z,16.64
2019-04-29T19:05:26.376Z,16.75
2019-04-29T19:08:10.898Z,16.69
2019-04-29T19:10:34.492Z,16.59
2019-04-29T19:13:00.472Z,16.40
2019-04-29T19:15:30.903Z,16.57
2019-04-29T19:18:02.028Z,16.51
2019-04-29T19:20:31.750Z,16.32
2019-04-29T19:23:08.141Z,16.40
2019-04-29T19:25:32.714Z,16.33
2019-04-29T19:28:11.840Z,16.36
2019-04-29T19:30:35.522Z,15.75
2019-04-29T19:33:05.850Z,15.33
2019-04-29T19:35:38.549Z,14.92
2019-04-29T19:38:12.415Z,14.72
2019-04-29T19:40:42.544Z,15.33
2019-04-29T19:43:15.342Z,15.30
2019-04-29T19:45:44.693Z,15.66
2019-04-29T19:48:13.452Z,15.56
2019-04-29T19:50:45.118Z,15.74
2019-04-29T19:53:14.836Z,15.94
2019-04-29T19:55:46.372Z,16.12
2019-04-29T19:58:16.909Z,16.23
2019-04-29T20:00:47.935Z,16.17
2019-04-29T20:03:23.431Z,16.17
2019-04-29T20:05:54.110Z,16.10
2019-04-29T20:08:46.677Z,16.34
2019-04-29T20:11:10.914Z,16.03
2019-04-29T20:13:31.889Z,15.70
2019-04-29T20:16:39.771Z,15.55
2019-04-29T20:19:16.216Z,15.52
2019-04-29T20:21:41.942Z,15.61
2019-04-29T20:24:15.532Z,15.57
2019-04-29T20:26:44.130Z,15.58
2019-04-29T20:29:15.925Z,15.40
2019-04-29T20:31:52.028Z,15.36
2019-04-29T20:34:23.685Z,15.07
2019-04-29T20:36:48.484Z,15.22
2019-04-29T20:39:38.817Z,15.29
2019-04-29T20:42:10.197Z,15.32
2019-04-29T20:44:44.399Z,15.39
2019-04-29T20:47:22.233Z,15.29
2019-04-29T20:49:44.107Z,15.21
2019-04-29T20:52:36.876Z,15.01
2019-04-29T20:55:09.189Z,15.13
2019-04-29T20:57:38.566Z,15.03
2019-04-29T21:00:08.860Z,15.09
2019-04-29T21:02:38.725Z,15.13
2019-04-29T21:05:10.228Z,14.97
2019-04-29T21:07:41.138Z,14.90
2019-04-29T21:10:10.810Z,14.97
2019-04-29T21:12:59.593Z,14.65
2019-04-29T21:15:37.531Z,14.47
2019-04-29T21:18:10.381Z,14.90
2019-04-29T21:20:38.698Z,15.05
2019-04-29T21:23:08.339Z,15.26
2019-04-29T21:25:37.982Z,15.05
2019-04-29T21:28:07.653Z,15.11
2019-04-29T21:30:42.591Z,15.02
2019-04-29T21:33:18.230Z,15.06
2019-04-29T21:36:07.975Z,15.04
2019-04-29T21:39:01.483Z,15.29
2019-04-29T21:41:55.473Z,15.38
2019-04-29T21:44:27.447Z,15.34
2019-04-29T21:46:55.263Z,15.24
2019-04-29T21:49:25.842Z,15.07
2019-04-29T21:51:55.636Z,14.94
2019-04-29T21:54:25.378Z,15.25
2019-04-29T21:56:55.587Z,15.30
2019-04-29T21:59:25.879Z,15.31
2019-04-29T22:01:56.212Z,15.11
2019-04-29T22:04:26.690Z,15.36
2019-04-29T22:06:59.944Z,15.53
2019-04-29T22:09:35.840Z,15.45
2019-04-29T22:11:59.141Z,15.46
2019-04-29T22:14:28.809Z,15.50
2019-04-29T22:16:58.487Z,15.37
2019-04-29T22:19:28.257Z,15.39
2019-04-29T22:22:01.542Z,15.38
2019-04-29T22:24:30.034Z,15.55
2019-04-29T22:27:03.772Z,15.54
2019-04-29T22:29:32.146Z,15.48
2019-04-29T22:32:02.594Z,15.59
2019-04-29T22:34:32.286Z,15.07
2019-04-29T22:37:01.925Z,15.19
2019-04-29T22:39:31.694Z,15.29
2019-04-29T22:42:15.606Z,15.30
2019-04-29T22:44:45.743Z,15.18
2019-04-29T22:47:17.284Z,15.12
2019-04-29T22:49:46.788Z,14.84
2019-04-29T22:52:16.465Z,14.73
2019-04-29T22:54:46.201Z,14.69
2019-04-29T22:57:15.886Z,14.92
2019-04-29T22:59:45.553Z,15.04
2019-04-29T23:02:15.750Z,14.89
2019-04-29T23:04:47.245Z,14.78
2019-04-29T23:07:17.691Z,14.58
2019-04-29T23:09:51.125Z,14.68
2019-04-29T23:12:20.799Z,14.59
2019-04-29T23:14:50.454Z,14.39
2019-04-29T23:17:20.121Z,14.37
2019-04-29T23:19:52.829Z,14.43
2019-04-29T23:22:41.484Z,14.27
2019-04-29T23:25:21.853Z,14.41
2019-04-29T23:27:52.557Z,14.36
2019-04-29T23:30:27.503Z,14.30
2019-04-29T23:32:57.267Z,14.26
2019-04-29T23:35:26.860Z,14.32
2019-04-29T23:37:58.814Z,14.39
2019-04-29T23:40:28.025Z,14.30
2019-04-29T23:42:57.586Z,14.15
2019-04-29T23:45:27.329Z,13.99
2019-04-29T23:47:57.111Z,13.64
2019-04-29T23:50:28.132Z,13.84
2019-04-29T23:52:58.047Z,13.89
2019-04-29T23:55:29.184Z,13.77
2019-04-29T23:58:19.915Z,13.73
